sensor_id;sensor_type;location;lat;lon;timestamp;temperature;humidity
12452;DHT22;6291;48.924;12.204;2023-04-03T00:02:05;4.10;1.00
12452;DHT22;6291;48.924;12.204;2023-04-03T00:07:09;4.20;1.00
12452;DHT22;6291;48.924;12.204;2023-04-03T00:12:14;4.20;1.00
12452;DHT22;6291;48.924;12.204;2023-04-03T00:17:19;4.10;1.00
12452;DHT22;6291;48.924;12.204;2023-04-03T00:22:23;4.20;1.00
12452;DHT22;6291;48.924;12.204;2023-04-03T00:27:28;5.60;1.00
12452;DHT22;6291;48.924;12.204;2023-04-03T00:32:33;4.20;1.00
12452;DHT22;6291;48.924;12.204;2023-04-03T00:37:37;4.10;1.00
12452;DHT22;6291;48.924;12.204;2023-04-03T00:42:42;5.90;1.00
12452;DHT22;6291;48.924;12.204;2023-04-03T00:47:47;4.00;1.00
12452;DHT22;6291;48.924;12.204;2023-04-03T00:52:51;4.10;1.00
12452;DHT22;6291;48.924;12.204;2023-04-03T00:57:55;4.10;1.00
12452;DHT22;6291;48.924;12.204;2023-04-03T01:03:00;4.00;1.00
12452;DHT22;6291;48.924;12.204;2023-04-03T01:08:05;4.00;1.00
12452;DHT22;6291;48.924;12.204;2023-04-03T01:13:23;4.10;1.00
12452;DHT22;6291;48.924;12.204;2023-04-03T01:18:29;4.10;1.00
12452;DHT22;6291;48.924;12.204;2023-04-03T01:23:43;3.90;1.00
12452;DHT22;6291;48.924;12.204;2023-04-03T01:28:48;3.90;1.00
12452;DHT22;6291;48.924;12.204;2023-04-03T01:33:53;4.00;1.00
12452;DHT22;6291;48.924;12.204;2023-04-03T01:38:59;4.20;1.00
12452;DHT22;6291;48.924;12.204;2023-04-03T01:44:03;4.00;1.00
12452;DHT22;6291;48.924;12.204;2023-04-03T01:49:09;4.00;1.00
12452;DHT22;6291;48.924;12.204;2023-04-03T01:54:12;4.00;1.00
12452;DHT22;6291;48.924;12.204;2023-04-03T01:59:16;4.00;1.00
12452;DHT22;6291;48.924;12.204;2023-04-03T02:04:23;4.00;1.00
12452;DHT22;6291;48.924;12.204;2023-04-03T02:09:26;3.90;1.00
12452;DHT22;6291;48.924;12.204;2023-04-03T02:14:30;3.90;1.00
12452;DHT22;6291;48.924;12.204;2023-04-03T02:19:35;3.90;1.00
12452;DHT22;6291;48.924;12.204;2023-04-03T02:24:39;3.90;1.00
12452;DHT22;6291;48.924;12.204;2023-04-03T02:29:43;3.90;1.00
12452;DHT22;6291;48.924;12.204;2023-04-03T02:34:48;3.90;1.00
12452;DHT22;6291;48.924;12.204;2023-04-03T02:39:52;4.00;1.00
12452;DHT22;6291;48.924;12.204;2023-04-03T02:44:56;3.90;1.00
12452;DHT22;6291;48.924;12.204;2023-04-03T02:50:03;3.90;1.00
12452;DHT22;6291;48.924;12.204;2023-04-03T02:55:08;3.80;1.00
12452;DHT22;6291;48.924;12.204;2023-04-03T03:00:12;3.80;1.00
12452;DHT22;6291;48.924;12.204;2023-04-03T03:05:18;3.70;1.00
12452;DHT22;6291;48.924;12.204;2023-04-03T03:10:22;3.70;1.00
12452;DHT22;6291;48.924;12.204;2023-04-03T03:15:25;3.70;1.00
12452;DHT22;6291;48.924;12.204;2023-04-03T03:20:30;4.20;1.00
12452;DHT22;6291;48.924;12.204;2023-04-03T03:25:37;3.80;1.00
12452;DHT22;6291;48.924;12.204;2023-04-03T03:30:42;3.80;1.00
12452;DHT22;6291;48.924;12.204;2023-04-03T03:35:47;3.60;1.00
12452;DHT22;6291;48.924;12.204;2023-04-03T03:40:50;3.70;1.00
12452;DHT22;6291;48.924;12.204;2023-04-03T03:45:56;3.70;1.00
12452;DHT22;6291;48.924;12.204;2023-04-03T03:51:02;3.70;1.00
12452;DHT22;6291;48.924;12.204;2023-04-03T03:56:10;3.70;1.00
12452;DHT22;6291;48.924;12.204;2023-04-03T04:01:15;3.60;1.00
12452;DHT22;6291;48.924;12.204;2023-04-03T04:06:23;3.70;1.00
12452;DHT22;6291;48.924;12.204;2023-04-03T04:11:31;3.60;1.00
12452;DHT22;6291;48.924;12.204;2023-04-03T04:16:36;3.70;1.00
12452;DHT22;6291;48.924;12.204;2023-04-03T04:21:47;3.60;1.00
12452;DHT22;6291;48.924;12.204;2023-04-03T04:26:51;3.50;1.00
12452;DHT22;6291;48.924;12.204;2023-04-03T04:31:55;3.50;1.00
12452;DHT22;6291;48.924;12.204;2023-04-03T04:37:00;3.50;1.00
12452;DHT22;6291;48.924;12.204;2023-04-03T04:42:05;3.50;1.00
12452;DHT22;6291;48.924;12.204;2023-04-03T04:47:09;3.60;1.00
12452;DHT22;6291;48.924;12.204;2023-04-03T04:52:15;3.90;1.00
12452;DHT22;6291;48.924;12.204;2023-04-03T04:57:19;3.50;1.00
12452;DHT22;6291;48.924;12.204;2023-04-03T05:02:23;3.50;1.00
12452;DHT22;6291;48.924;12.204;2023-04-03T05:07:30;3.50;1.00
12452;DHT22;6291;48.924;12.204;2023-04-03T05:12:34;3.70;1.00
12452;DHT22;6291;48.924;12.204;2023-04-03T05:17:39;3.60;1.00
12452;DHT22;6291;48.924;12.204;2023-04-03T05:22:47;3.50;1.00
12452;DHT22;6291;48.924;12.204;2023-04-03T05:27:52;3.50;1.00
12452;DHT22;6291;48.924;12.204;2023-04-03T05:32:56;3.50;1.00
12452;DHT22;6291;48.924;12.204;2023-04-03T05:38:11;3.60;1.00
12452;DHT22;6291;48.924;12.204;2023-04-03T05:43:15;3.60;1.00
12452;DHT22;6291;48.924;12.204;2023-04-03T05:48:19;3.60;1.00
12452;DHT22;6291;48.924;12.204;2023-04-03T05:53:27;4.60;1.00
12452;DHT22;6291;48.924;12.204;2023-04-03T05:58:34;3.70;1.00
12452;DHT22;6291;48.924;12.204;2023-04-03T06:03:38;3.80;1.00
12452;DHT22;6291;48.924;12.204;2023-04-03T06:08:45;3.90;1.00
12452;DHT22;6291;48.924;12.204;2023-04-03T06:13:48;4.30;1.00
12452;DHT22;6291;48.924;12.204;2023-04-03T06:18:52;4.40;1.00
12452;DHT22;6291;48.924;12.204;2023-04-03T06:23:59;5.30;1.00
12452;DHT22;6291;48.924;12.204;2023-04-03T06:29:04;4.30;1.00
12452;DHT22;6291;48.924;12.204;2023-04-03T06:34:07;4.50;1.00
12452;DHT22;6291;48.924;12.204;2023-04-03T06:39:14;4.80;1.00
12452;DHT22;6291;48.924;12.204;2023-04-03T06:44:18;4.50;1.00
12452;DHT22;6291;48.924;12.204;2023-04-03T06:49:22;4.70;1.00
12452;DHT22;6291;48.924;12.204;2023-04-03T06:54:26;4.50;1.00
12452;DHT22;6291;48.924;12.204;2023-04-03T06:59:30;4.90;1.00
12452;DHT22;6291;48.924;12.204;2023-04-03T07:04:33;4.70;1.00
12452;DHT22;6291;48.924;12.204;2023-04-03T07:09:38;4.60;1.00
12452;DHT22;6291;48.924;12.204;2023-04-03T07:14:43;4.80;1.00
12452;DHT22;6291;48.924;12.204;2023-04-03T07:19:46;4.80;1.00
12452;DHT22;6291;48.924;12.204;2023-04-03T07:24:51;4.90;1.00
12452;DHT22;6291;48.924;12.204;2023-04-03T07:29:55;4.80;1.00
12452;DHT22;6291;48.924;12.204;2023-04-03T07:34:59;5.10;1.00
12452;DHT22;6291;48.924;12.204;2023-04-03T07:40:06;5.40;1.00
12452;DHT22;6291;48.924;12.204;2023-04-03T07:45:10;5.50;1.00
12452;DHT22;6291;48.924;12.204;2023-04-03T07:50:14;5.80;1.00
12452;DHT22;6291;48.924;12.204;2023-04-03T07:55:19;6.10;1.00
12452;DHT22;6291;48.924;12.204;2023-04-03T08:00:23;6.70;1.00
12452;DHT22;6291;48.924;12.204;2023-04-03T08:05:26;7.70;1.00
12452;DHT22;6291;48.924;12.204;2023-04-03T08:10:31;7.00;1.00
12452;DHT22;6291;48.924;12.204;2023-04-03T08:15:35;6.70;1.00
12452;DHT22;6291;48.924;12.204;2023-04-03T08:20:39;6.80;1.00
12452;DHT22;6291;48.924;12.204;2023-04-03T08:25:44;6.70;1.00
12452;DHT22;6291;48.924;12.204;2023-04-03T08:30:48;7.30;1.00
12452;DHT22;6291;48.924;12.204;2023-04-03T08:35:51;7.10;1.00
12452;DHT22;6291;48.924;12.204;2023-04-03T08:41:04;6.80;1.00
12452;DHT22;6291;48.924;12.204;2023-04-03T08:46:11;7.00;1.00
12452;DHT22;6291;48.924;12.204;2023-04-03T08:51:20;7.40;1.00
12452;DHT22;6291;48.924;12.204;2023-04-03T08:56:25;8.80;99.90
12452;DHT22;6291;48.924;12.204;2023-04-03T09:01:34;9.90;99.90
12452;DHT22;6291;48.924;12.204;2023-04-03T09:06:39;11.20;99.90
12452;DHT22;6291;48.924;12.204;2023-04-03T09:11:53;10.70;99.90
12452;DHT22;6291;48.924;12.204;2023-04-03T09:17:03;9.90;99.90
12452;DHT22;6291;48.924;12.204;2023-04-03T09:22:16;10.70;99.90
12452;DHT22;6291;48.924;12.204;2023-04-03T09:27:21;11.80;99.90
12452;DHT22;6291;48.924;12.204;2023-04-03T09:32:27;12.60;99.90
12452;DHT22;6291;48.924;12.204;2023-04-03T09:37:39;11.40;99.90
12452;DHT22;6291;48.924;12.204;2023-04-03T09:42:45;9.80;99.90
12452;DHT22;6291;48.924;12.204;2023-04-03T09:48:08;10.30;99.90
12452;DHT22;6291;48.924;12.204;2023-04-03T09:53:27;11.90;99.90
12452;DHT22;6291;48.924;12.204;2023-04-03T09:58:36;13.00;99.90
12452;DHT22;6291;48.924;12.204;2023-04-03T10:04:04;13.10;99.90
12452;DHT22;6291;48.924;12.204;2023-04-03T10:09:18;13.10;99.90
12452;DHT22;6291;48.924;12.204;2023-04-03T10:14:23;13.10;99.90
12452;DHT22;6291;48.924;12.204;2023-04-03T10:19:36;14.10;99.90
12452;DHT22;6291;48.924;12.204;2023-04-03T10:24:50;13.80;99.90
12452;DHT22;6291;48.924;12.204;2023-04-03T10:30:01;13.50;99.90
12452;DHT22;6291;48.924;12.204;2023-04-03T10:35:12;14.50;99.90
12452;DHT22;6291;48.924;12.204;2023-04-03T10:40:27;14.50;99.90
12452;DHT22;6291;48.924;12.204;2023-04-03T10:45:55;14.60;99.90
12452;DHT22;6291;48.924;12.204;2023-04-03T10:51:11;14.70;99.90
12452;DHT22;6291;48.924;12.204;2023-04-03T10:56:19;14.50;99.90
12452;DHT22;6291;48.924;12.204;2023-04-03T11:01:30;14.40;99.90
12452;DHT22;6291;48.924;12.204;2023-04-03T11:06:39;13.90;99.90
12452;DHT22;6291;48.924;12.204;2023-04-03T11:11:44;14.60;99.90
12452;DHT22;6291;48.924;12.204;2023-04-03T11:16:59;14.60;99.90
12452;DHT22;6291;48.924;12.204;2023-04-03T11:22:10;12.40;99.90
12452;DHT22;6291;48.924;12.204;2023-04-03T11:27:20;15.30;99.90
12452;DHT22;6291;48.924;12.204;2023-04-03T11:38:05;12.90;99.90
12452;DHT22;6291;48.924;12.204;2023-04-03T11:43:21;14.30;99.90
12452;DHT22;6291;48.924;12.204;2023-04-03T11:48:51;15.70;99.90
12452;DHT22;6291;48.924;12.204;2023-04-03T11:59:45;15.90;99.90
12452;DHT22;6291;48.924;12.204;2023-04-03T12:05:25;17.00;99.90
12452;DHT22;6291;48.924;12.204;2023-04-03T12:10:29;14.10;99.90
12452;DHT22;6291;48.924;12.204;2023-04-03T12:21:03;11.40;99.90
12452;DHT22;6291;48.924;12.204;2023-04-03T12:26:20;11.10;99.90
12452;DHT22;6291;48.924;12.204;2023-04-03T12:31:35;14.10;99.90
12452;DHT22;6291;48.924;12.204;2023-04-03T12:36:52;13.70;99.90
12452;DHT22;6291;48.924;12.204;2023-04-03T12:42:08;12.70;99.90
12452;DHT22;6291;48.924;12.204;2023-04-03T12:47:24;13.80;99.90
12452;DHT22;6291;48.924;12.204;2023-04-03T12:52:42;15.50;99.90
12452;DHT22;6291;48.924;12.204;2023-04-03T12:57:47;16.50;99.90
12452;DHT22;6291;48.924;12.204;2023-04-03T13:02:51;15.80;99.90
12452;DHT22;6291;48.924;12.204;2023-04-03T13:07:58;12.60;99.90
12452;DHT22;6291;48.924;12.204;2023-04-03T13:13:08;11.90;99.90
12452;DHT22;6291;48.924;12.204;2023-04-03T13:18:27;14.50;99.90
12452;DHT22;6291;48.924;12.204;2023-04-03T13:23:34;12.50;99.90
12452;DHT22;6291;48.924;12.204;2023-04-03T13:28:39;9.30;99.90
12452;DHT22;6291;48.924;12.204;2023-04-03T13:33:56;12.00;99.90
12452;DHT22;6291;48.924;12.204;2023-04-03T13:39:06;14.50;99.90
12452;DHT22;6291;48.924;12.204;2023-04-03T13:44:29;13.70;99.90
12452;DHT22;6291;48.924;12.204;2023-04-03T13:49:35;16.10;99.90
12452;DHT22;6291;48.924;12.204;2023-04-03T13:54:40;15.00;99.90
12452;DHT22;6291;48.924;12.204;2023-04-03T13:59:44;13.90;99.90
12452;DHT22;6291;48.924;12.204;2023-04-03T14:04:51;15.10;99.90
12452;DHT22;6291;48.924;12.204;2023-04-03T14:09:59;15.90;99.90
12452;DHT22;6291;48.924;12.204;2023-04-03T14:15:27;14.70;99.90
12452;DHT22;6291;48.924;12.204;2023-04-03T14:20:28;11.00;99.90
12452;DHT22;6291;48.924;12.204;2023-04-03T14:25:33;12.20;99.90
12452;DHT22;6291;48.924;12.204;2023-04-03T14:30:36;11.10;99.90
12452;DHT22;6291;48.924;12.204;2023-04-03T14:35:40;14.30;99.90
12452;DHT22;6291;48.924;12.204;2023-04-03T14:40:45;15.90;99.90
12452;DHT22;6291;48.924;12.204;2023-04-03T14:45:49;15.50;99.90
12452;DHT22;6291;48.924;12.204;2023-04-03T14:50:54;13.30;99.90
12452;DHT22;6291;48.924;12.204;2023-04-03T14:56:13;10.00;99.90
12452;DHT22;6291;48.924;12.204;2023-04-03T15:01:17;9.20;99.90
12452;DHT22;6291;48.924;12.204;2023-04-03T15:06:21;9.10;99.90
12452;DHT22;6291;48.924;12.204;2023-04-03T15:11:26;8.60;99.90
12452;DHT22;6291;48.924;12.204;2023-04-03T15:16:29;8.40;99.90
12452;DHT22;6291;48.924;12.204;2023-04-03T15:21:33;9.20;99.90
12452;DHT22;6291;48.924;12.204;2023-04-03T15:26:38;10.00;99.90
12452;DHT22;6291;48.924;12.204;2023-04-03T15:31:41;12.70;99.90
12452;DHT22;6291;48.924;12.204;2023-04-03T15:36:45;14.00;99.90
12452;DHT22;6291;48.924;12.204;2023-04-03T15:41:49;11.30;99.90
12452;DHT22;6291;48.924;12.204;2023-04-03T15:46:53;9.70;99.90
12452;DHT22;6291;48.924;12.204;2023-04-03T15:51:57;9.20;99.90
12452;DHT22;6291;48.924;12.204;2023-04-03T15:57:02;11.50;99.90
12452;DHT22;6291;48.924;12.204;2023-04-03T16:02:06;12.30;99.90
12452;DHT22;6291;48.924;12.204;2023-04-03T16:07:11;9.60;99.90
12452;DHT22;6291;48.924;12.204;2023-04-03T16:12:16;8.40;99.90
12452;DHT22;6291;48.924;12.204;2023-04-03T16:17:20;7.80;99.90
12452;DHT22;6291;48.924;12.204;2023-04-03T16:22:25;8.20;99.90
12452;DHT22;6291;48.924;12.204;2023-04-03T16:27:30;11.30;99.90
12452;DHT22;6291;48.924;12.204;2023-04-03T16:32:34;12.60;99.90
12452;DHT22;6291;48.924;12.204;2023-04-03T16:37:39;12.10;99.90
12452;DHT22;6291;48.924;12.204;2023-04-03T16:42:44;10.20;99.90
12452;DHT22;6291;48.924;12.204;2023-04-03T16:47:48;8.40;99.90
12452;DHT22;6291;48.924;12.204;2023-04-03T16:52:52;8.50;99.90
12452;DHT22;6291;48.924;12.204;2023-04-03T16:57:56;9.30;99.90
12452;DHT22;6291;48.924;12.204;2023-04-03T17:03:00;9.80;99.90
12452;DHT22;6291;48.924;12.204;2023-04-03T17:08:03;8.30;99.90
12452;DHT22;6291;48.924;12.204;2023-04-03T17:13:08;7.70;99.90
12452;DHT22;6291;48.924;12.204;2023-04-03T17:18:11;6.40;99.90
12452;DHT22;6291;48.924;12.204;2023-04-03T17:23:15;7.60;99.90
12452;DHT22;6291;48.924;12.204;2023-04-03T17:28:20;5.00;99.90
12452;DHT22;6291;48.924;12.204;2023-04-03T17:33:29;4.70;99.90
12452;DHT22;6291;48.924;12.204;2023-04-03T17:38:33;4.60;99.90
12452;DHT22;6291;48.924;12.204;2023-04-03T17:43:37;4.20;99.90
12452;DHT22;6291;48.924;12.204;2023-04-03T17:48:40;4.40;99.90
12452;DHT22;6291;48.924;12.204;2023-04-03T17:53:44;4.20;99.90
12452;DHT22;6291;48.924;12.204;2023-04-03T17:58:48;4.00;99.90
12452;DHT22;6291;48.924;12.204;2023-04-03T18:03:52;3.80;99.90
12452;DHT22;6291;48.924;12.204;2023-04-03T18:08:57;3.80;99.90
12452;DHT22;6291;48.924;12.204;2023-04-03T18:14:06;3.60;99.90
12452;DHT22;6291;48.924;12.204;2023-04-03T18:19:10;2.30;99.90
12452;DHT22;6291;48.924;12.204;2023-04-03T18:24:24;0.90;99.90
12452;DHT22;6291;48.924;12.204;2023-04-03T18:29:29;3.30;99.90
12452;DHT22;6291;48.924;12.204;2023-04-03T18:34:34;3.30;99.90
12452;DHT22;6291;48.924;12.204;2023-04-03T18:39:37;3.20;99.90
12452;DHT22;6291;48.924;12.204;2023-04-03T18:44:42;3.20;99.90
12452;DHT22;6291;48.924;12.204;2023-04-03T18:49:46;4.10;99.90
12452;DHT22;6291;48.924;12.204;2023-04-03T18:54:49;3.20;99.90
12452;DHT22;6291;48.924;12.204;2023-04-03T18:59:54;3.30;99.90
12452;DHT22;6291;48.924;12.204;2023-04-03T19:04:57;3.30;99.90
12452;DHT22;6291;48.924;12.204;2023-04-03T19:10:00;3.30;99.90
12452;DHT22;6291;48.924;12.204;2023-04-03T19:15:05;3.40;99.90
12452;DHT22;6291;48.924;12.204;2023-04-03T19:20:09;3.40;99.90
12452;DHT22;6291;48.924;12.204;2023-04-03T19:25:12;3.40;99.90
12452;DHT22;6291;48.924;12.204;2023-04-03T19:30:17;3.30;99.90
12452;DHT22;6291;48.924;12.204;2023-04-03T19:35:20;3.30;99.90
12452;DHT22;6291;48.924;12.204;2023-04-03T19:40:23;4.70;99.90
12452;DHT22;6291;48.924;12.204;2023-04-03T19:45:31;3.20;99.90
12452;DHT22;6291;48.924;12.204;2023-04-03T19:50:34;3.90;99.90
12452;DHT22;6291;48.924;12.204;2023-04-03T19:55:38;6.00;99.90
12452;DHT22;6291;48.924;12.204;2023-04-03T20:00:43;2.90;99.90
12452;DHT22;6291;48.924;12.204;2023-04-03T20:05:46;2.50;99.90
12452;DHT22;6291;48.924;12.204;2023-04-03T20:10:49;3.50;99.90
12452;DHT22;6291;48.924;12.204;2023-04-03T20:15:53;2.50;99.90
12452;DHT22;6291;48.924;12.204;2023-04-03T20:20:58;2.80;99.90
12452;DHT22;6291;48.924;12.204;2023-04-03T20:26:02;2.30;99.90
12452;DHT22;6291;48.924;12.204;2023-04-03T20:31:18;2.20;99.90
12452;DHT22;6291;48.924;12.204;2023-04-03T20:36:22;2.10;99.90
12452;DHT22;6291;48.924;12.204;2023-04-03T20:41:27;1.90;99.90
12452;DHT22;6291;48.924;12.204;2023-04-03T20:46:32;1.90;99.90
12452;DHT22;6291;48.924;12.204;2023-04-03T20:51:53;4.20;99.90
12452;DHT22;6291;48.924;12.204;2023-04-03T20:56:56;1.80;99.90
12452;DHT22;6291;48.924;12.204;2023-04-03T21:02:01;1.70;99.90
12452;DHT22;6291;48.924;12.204;2023-04-03T21:23:02;1.40;99.90
12452;DHT22;6291;48.924;12.204;2023-04-03T21:28:06;1.40;99.90
12452;DHT22;6291;48.924;12.204;2023-04-03T21:33:10;1.40;99.90
12452;DHT22;6291;48.924;12.204;2023-04-03T21:38:14;1.30;99.90
12452;DHT22;6291;48.924;12.204;2023-04-03T21:43:17;1.20;99.90
12452;DHT22;6291;48.924;12.204;2023-04-03T21:48:22;1.20;99.90
12452;DHT22;6291;48.924;12.204;2023-04-03T21:53:25;1.10;99.90
12452;DHT22;6291;48.924;12.204;2023-04-03T21:58:31;1.00;99.90
12452;DHT22;6291;48.924;12.204;2023-04-03T22:03:36;0.90;99.90
12452;DHT22;6291;48.924;12.204;2023-04-03T22:08:39;0.90;99.90
12452;DHT22;6291;48.924;12.204;2023-04-03T22:13:42;1.40;99.90
12452;DHT22;6291;48.924;12.204;2023-04-03T22:18:47;0.00;99.90
12452;DHT22;6291;48.924;12.204;2023-04-03T22:23:50;3.90;99.90
12452;DHT22;6291;48.924;12.204;2023-04-03T22:28:55;1.20;99.90
12452;DHT22;6291;48.924;12.204;2023-04-03T22:34:00;1.40;99.90
12452;DHT22;6291;48.924;12.204;2023-04-03T22:39:04;1.50;99.90
12452;DHT22;6291;48.924;12.204;2023-04-03T22:44:08;1.50;99.90
12452;DHT22;6291;48.924;12.204;2023-04-03T22:49:13;1.60;99.90
12452;DHT22;6291;48.924;12.204;2023-04-03T22:54:16;1.60;99.90
12452;DHT22;6291;48.924;12.204;2023-04-03T22:59:19;1.60;99.90
12452;DHT22;6291;48.924;12.204;2023-04-03T23:04:25;3.30;99.90
12452;DHT22;6291;48.924;12.204;2023-04-03T23:09:29;1.60;99.90
12452;DHT22;6291;48.924;12.204;2023-04-03T23:14:32;1.40;99.90
12452;DHT22;6291;48.924;12.204;2023-04-03T23:19:37;2.80;99.90
12452;DHT22;6291;48.924;12.204;2023-04-03T23:24:40;1.40;99.90
12452;DHT22;6291;48.924;12.204;2023-04-03T23:29:43;2.80;99.90
12452;DHT22;6291;48.924;12.204;2023-04-03T23:34:47;1.30;99.90
12452;DHT22;6291;48.924;12.204;2023-04-03T23:39:51;1.10;99.90
12452;DHT22;6291;48.924;12.204;2023-04-03T23:44:54;1.10;99.90
12452;DHT22;6291;48.924;12.204;2023-04-03T23:49:59;1.00;99.90
12452;DHT22;6291;48.924;12.204;2023-04-03T23:55:02;3.50;99.90
